Time;durP1;ratioP1;P1;durP2;ratioP2;P2;SDS_P1;SDS_P2;PMS_P1;PMS_P2;Temp;Humidity;BMP_temperature;BMP_pressure;BME280_temperature;BME280_humidity;BME280_pressure;Samples;Min_cycle;Max_cycle;Signal;HPM_P1;HPM_P2
2022/05/15 00:00:40;;;;;;;2.65;1.75;;;20.90;58.70;;;;;;5053283;28;20182;-70
2022/05/15 00:03:16;;;;;;;1.73;1.63;;;20.90;58.70;;;;;;5035706;28;20217;-71
2022/05/15 00:05:44;;;;;;;1.70;1.60;;;20.90;58.70;;;;;;5035611;28;20204;-71
2022/05/15 00:08:11;;;;;;;1.65;1.40;;;20.90;58.70;;;;;;5035698;28;20179;-71
2022/05/15 00:10:41;;;;;;;2.05;1.63;;;20.90;58.60;;;;;;5035114;28;20231;-71
2022/05/15 00:13:09;;;;;;;1.55;1.45;;;20.90;58.50;;;;;;5018912;28;20677;-71
2022/05/15 00:15:35;;;;;;;1.60;1.50;;;20.90;58.50;;;;;;5035080;28;20191;-71
2022/05/15 00:18:03;;;;;;;1.77;1.40;;;20.90;58.50;;;;;;5035359;28;20240;-71
2022/05/15 00:20:29;;;;;;;1.67;1.58;;;20.90;58.40;;;;;;5018920;28;20194;-71
2022/05/15 00:22:56;;;;;;;1.55;1.30;;;20.90;58.40;;;;;;5036412;28;20233;-71
2022/05/15 00:25:22;;;;;;;1.45;1.20;;;20.90;58.50;;;;;;5019450;28;20248;-71
2022/05/15 00:27:48;;;;;;;2.30;1.70;;;20.90;58.40;;;;;;5036425;28;20182;-71
2022/05/15 00:30:16;;;;;;;1.67;1.58;;;20.90;58.50;;;;;;5035569;28;20201;-71
2022/05/15 00:32:42;;;;;;;1.50;1.40;;;20.90;58.40;;;;;;5018933;28;20183;-71
2022/05/15 00:35:09;;;;;;;1.60;1.50;;;20.90;58.40;;;;;;5035910;28;20255;-71
2022/05/15 00:37:35;;;;;;;1.80;1.60;;;20.90;58.40;;;;;;5054490;28;20261;-70
2022/05/15 00:40:01;;;;;;;1.50;1.40;;;20.90;58.30;;;;;;5053458;28;20205;-71
2022/05/15 00:42:27;;;;;;;1.58;1.48;;;20.90;58.30;;;;;;5036161;28;20214;-71
2022/05/15 00:44:52;;;;;;;1.38;1.27;;;20.90;58.30;;;;;;5036538;28;20216;-71
2022/05/15 00:47:19;;;;;;;1.50;1.40;;;20.90;58.30;;;;;;5020627;28;20179;-71
2022/05/15 00:49:46;;;;;;;1.50;1.40;;;20.90;58.40;;;;;;5036538;28;20189;-71
2022/05/15 00:52:22;;;;;;;1.85;1.55;;;20.90;58.30;;;;;;5037829;28;20209;-71
2022/05/15 00:55:20;;;;;;;1.77;1.35;;;20.90;58.30;;;;;;5054470;28;20198;-71
2022/05/15 00:57:58;;;;;;;1.73;1.48;;;20.90;58.30;;;;;;5053953;28;20187;-71
2022/05/15 01:00:29;;;;;;;1.45;1.35;;;20.90;58.30;;;;;;5036994;28;20181;-70
2022/05/15 01:03:16;;;;;;;1.58;1.48;;;20.80;58.20;;;;;;5019613;28;20230;-71
2022/05/15 01:05:56;;;;;;;1.70;1.30;;;20.90;58.30;;;;;;5020230;28;20190;-71
2022/05/15 01:08:27;;;;;;;1.50;1.40;;;20.80;58.20;;;;;;5019660;28;20186;-71
2022/05/15 01:10:59;;;;;;;1.52;1.42;;;20.80;58.20;;;;;;5019004;28;20182;-71
2022/05/15 01:13:32;;;;;;;1.58;1.10;;;20.90;58.30;;;;;;5051811;28;20206;-71
2022/05/15 01:16:00;;;;;;;1.52;1.25;;;20.80;58.20;;;;;;5019337;28;20681;-71
2022/05/15 01:18:32;;;;;;;1.75;1.45;;;20.80;58.20;;;;;;5035974;28;20185;-71
2022/05/15 01:21:01;;;;;;;1.42;1.33;;;20.80;58.20;;;;;;5036144;28;20677;-71
2022/05/15 01:23:29;;;;;;;1.30;1.20;;;20.90;58.30;;;;;;5020483;28;20245;-71
2022/05/15 01:25:57;;;;;;;1.08;1.08;;;20.80;58.20;;;;;;5019527;28;20190;-71
2022/05/15 01:28:25;;;;;;;1.50;1.40;;;20.90;58.30;;;;;;5023117;28;20221;-71
2022/05/15 01:30:55;;;;;;;1.50;1.20;;;20.80;58.20;;;;;;5023923;28;20268;-70
2022/05/15 01:33:22;;;;;;;1.42;1.33;;;20.80;58.20;;;;;;5056818;28;20218;-71
2022/05/15 01:35:48;;;;;;;1.20;1.10;;;20.80;58.20;;;;;;5040273;28;20193;-71
2022/05/15 01:38:16;;;;;;;1.35;1.25;;;20.80;58.20;;;;;;5057085;28;20187;-71
2022/05/15 01:40:42;;;;;;;1.65;1.10;;;20.80;58.20;;;;;;5040233;28;20190;-70
2022/05/15 01:43:09;;;;;;;2.22;1.40;;;20.80;58.20;;;;;;5024042;28;20313;-71
2022/05/15 01:45:35;;;;;;;1.60;1.50;;;20.80;58.20;;;;;;5023692;28;20244;-70
2022/05/15 01:48:02;;;;;;;1.77;1.23;;;20.80;58.20;;;;;;5025676;28;20183;-70
2022/05/15 01:50:30;;;;;;;1.10;1.10;;;20.80;58.20;;;;;;5025459;28;20244;-70
2022/05/15 01:52:56;;;;;;;1.73;1.40;;;20.80;58.20;;;;;;5041087;28;20198;-70
2022/05/15 01:55:23;;;;;;;1.20;1.10;;;20.80;58.20;;;;;;5039935;28;20237;-71
2022/05/15 01:57:49;;;;;;;1.40;1.20;;;20.80;58.20;;;;;;5048453;28;20272;-71
2022/05/15 02:00:21;;;;;;;1.30;1.20;;;20.80;58.20;;;;;;5066141;28;20177;-71
2022/05/15 02:02:49;;;;;;;1.65;1.20;;;20.80;58.20;;;;;;5041722;28;20210;-71
2022/05/15 02:05:17;;;;;;;1.13;1.02;;;20.80;58.20;;;;;;5058149;28;20641;-71
2022/05/15 02:07:44;;;;;;;2.75;1.40;;;20.80;58.20;;;;;;5047873;28;20222;-70
2022/05/15 02:10:12;;;;;;;1.15;1.08;;;20.80;58.20;;;;;;5041293;28;20182;-71
2022/05/15 02:12:38;;;;;;;1.75;1.40;;;20.80;58.20;;;;;;5058136;28;20182;-71
2022/05/15 02:15:06;;;;;;;1.50;1.40;;;20.80;58.80;;;;;;5075037;28;20188;-70
2022/05/15 02:17:33;;;;;;;1.60;1.40;;;20.80;58.20;;;;;;5058691;28;20224;-71
2022/05/15 02:19:59;;;;;;;1.70;1.30;;;20.80;58.20;;;;;;5058638;28;20178;-71
2022/05/15 02:22:25;;;;;;;1.67;1.25;;;20.80;58.20;;;;;;5059191;28;20205;-71
2022/05/15 02:24:51;;;;;;;1.25;1.15;;;20.80;58.20;;;;;;5075040;28;20237;-71
2022/05/15 02:27:17;;;;;;;1.77;1.38;;;20.80;58.20;;;;;;5042110;28;20666;-71
2022/05/15 02:29:43;;;;;;;1.20;1.10;;;20.80;58.20;;;;;;5075999;28;20173;-70
2022/05/15 02:32:10;;;;;;;1.63;1.30;;;20.80;58.20;;;;;;5058863;28;20192;-71
2022/05/15 02:34:36;;;;;;;1.08;1.00;;;20.80;58.10;;;;;;5042793;28;20209;-71
2022/05/15 02:37:04;;;;;;;1.23;1.13;;;20.80;58.20;;;;;;5076128;28;20180;-70
2022/05/15 02:39:30;;;;;;;1.52;1.38;;;20.80;58.20;;;;;;5059138;28;20182;-71
2022/05/15 02:41:56;;;;;;;2.33;1.35;;;20.80;58.20;;;;;;5042949;28;20185;-70
2022/05/15 02:44:23;;;;;;;1.27;1.20;;;20.80;58.20;;;;;;5057499;28;20213;-71
2022/05/15 02:46:52;;;;;;;1.20;1.10;;;20.80;58.20;;;;;;5057641;28;20178;-71
2022/05/15 02:52:02;;;;;;;1.33;1.20;;;20.80;58.20;;;;;;5057234;28;20176;-70
2022/05/15 02:54:28;;;;;;;1.40;1.30;;;20.80;58.10;;;;;;5046306;28;20198;-70
2022/05/15 02:56:55;;;;;;;1.60;1.50;;;20.80;58.10;;;;;;5036696;28;20185;-71
2022/05/15 02:59:21;;;;;;;1.30;1.20;;;20.80;58.20;;;;;;5020735;28;20194;-71
2022/05/15 03:01:47;;;;;;;1.58;1.27;;;20.80;58.20;;;;;;5020663;28;20218;-71
2022/05/15 03:04:12;;;;;;;2.20;1.20;;;20.80;58.20;;;;;;5036930;28;20219;-71
2022/05/15 03:06:38;;;;;;;1.52;1.35;;;20.80;58.20;;;;;;5037558;28;20221;-71
2022/05/15 03:09:04;;;;;;;1.23;1.10;;;20.80;58.10;;;;;;5037354;28;20193;-71
2022/05/15 03:11:31;;;;;;;1.60;1.13;;;20.80;58.20;;;;;;5036778;28;20190;-70
2022/05/15 03:13:57;;;;;;;1.77;1.20;;;20.80;58.10;;;;;;5036676;28;20260;-71
2022/05/15 03:16:22;;;;;;;0.98;0.95;;;20.80;58.10;;;;;;5036590;28;20250;-71
2022/05/15 03:18:51;;;;;;;1.42;1.20;;;20.80;58.20;;;;;;5036835;28;20274;-71
2022/05/15 03:21:30;;;;;;;1.98;1.17;;;20.80;58.10;;;;;;5036520;28;20650;-71
2022/05/15 03:24:06;;;;;;;1.92;1.23;;;20.80;58.10;;;;;;5036217;28;20246;-71
2022/05/15 03:26:46;;;;;;;1.20;1.10;;;20.80;58.10;;;;;;5036083;28;20257;-71
2022/05/15 03:29:16;;;;;;;1.20;1.10;;;20.80;58.20;;;;;;5036208;28;20195;-71
2022/05/15 03:31:42;;;;;;;1.88;1.30;;;20.80;58.10;;;;;;5039886;28;20637;-71
2022/05/15 03:36:39;;;;;;;1.73;1.58;;;20.80;58.10;;;;;;5071273;28;20245;-69
2022/05/15 03:39:08;;;;;;;1.75;1.20;;;20.80;58.10;;;;;;5054810;28;20177;-69
2022/05/15 03:41:36;;;;;;;1.30;1.20;;;20.80;58.10;;;;;;5071304;28;20185;-69
2022/05/15 03:44:03;;;;;;;1.40;1.30;;;20.80;58.10;;;;;;5054410;28;20604;-69
2022/05/15 03:46:30;;;;;;;2.53;1.20;;;20.80;58.20;;;;;;5071405;28;20225;-69
2022/05/15 03:48:56;;;;;;;1.27;1.17;;;20.80;58.10;;;;;;5071215;28;20212;-69
2022/05/15 03:51:22;;;;;;;2.35;1.30;;;20.80;58.10;;;;;;5053993;28;20189;-69
2022/05/15 03:53:48;;;;;;;1.38;1.27;;;20.80;58.10;;;;;;5054595;28;20202;-69
2022/05/15 03:56:14;;;;;;;1.02;0.93;;;20.80;58.20;;;;;;5071308;28;20224;-69
2022/05/15 03:58:41;;;;;;;1.75;1.20;;;20.80;58.10;;;;;;5070981;28;20174;-69
2022/05/15 04:01:07;;;;;;;0.93;0.93;;;20.80;58.10;;;;;;5054306;28;20235;-69
2022/05/15 04:03:33;;;;;;;1.05;1.05;;;20.80;58.20;;;;;;5071005;28;20255;-68
2022/05/15 04:06:00;;;;;;;1.08;0.93;;;20.80;58.10;;;;;;5071350;28;20178;-69
2022/05/15 04:08:27;;;;;;;1.77;1.10;;;20.70;58.10;;;;;;5071096;28;20181;-69
2022/05/15 04:10:55;;;;;;;1.30;1.20;;;20.70;58.10;;;;;;5070695;28;20186;-70
2022/05/15 04:13:23;;;;;;;1.75;0.98;;;20.80;58.20;;;;;;5070923;28;20257;-69
2022/05/15 04:15:49;;;;;;;1.45;1.20;;;20.70;58.10;;;;;;5071685;28;20255;-69
2022/05/15 04:18:15;;;;;;;1.92;1.20;;;20.80;58.20;;;;;;5072654;28;20182;-69
2022/05/15 04:20:42;;;;;;;1.23;1.10;;;20.80;58.10;;;;;;5071220;28;20235;-69
2022/05/15 04:23:08;;;;;;;1.77;1.20;;;20.80;58.10;;;;;;5054910;28;20205;-70
2022/05/15 04:25:34;;;;;;;2.67;1.30;;;20.70;58.00;;;;;;5071106;28;20193;-70
2022/05/15 04:28:00;;;;;;;0.98;0.95;;;20.80;58.20;;;;;;5072443;28;20252;-70
2022/05/15 04:30:27;;;;;;;3.15;1.30;;;20.80;58.20;;;;;;5071116;28;20197;-70
2022/05/15 04:32:53;;;;;;;1.30;1.20;;;20.70;58.10;;;;;;5071508;28;20193;-70
2022/05/15 04:35:22;;;;;;;1.30;1.20;;;20.70;58.10;;;;;;5071134;28;20217;-70
2022/05/15 04:37:50;;;;;;;1.30;1.20;;;20.80;58.20;;;;;;5071256;28;20182;-70
2022/05/15 04:40:17;;;;;;;1.30;1.20;;;20.70;58.10;;;;;;5070994;28;20276;-70
2022/05/15 04:42:43;;;;;;;1.23;1.13;;;20.70;58.10;;;;;;5070918;28;20305;-70
2022/05/15 04:45:10;;;;;;;2.35;1.35;;;20.70;58.10;;;;;;5071094;28;20288;-70
2022/05/15 04:47:36;;;;;;;1.20;1.10;;;20.70;58.10;;;;;;5071157;28;20181;-70
2022/05/15 04:50:03;;;;;;;1.30;1.20;;;20.70;58.10;;;;;;5054114;28;20178;-70
2022/05/15 04:52:29;;;;;;;1.85;1.20;;;20.70;58.10;;;;;;5071021;28;20250;-70
2022/05/15 04:54:54;;;;;;;1.15;1.05;;;20.70;58.10;;;;;;5054536;28;20205;-69
2022/05/15 04:57:20;;;;;;;1.35;1.20;;;20.70;58.10;;;;;;5071335;28;20174;-68
2022/05/15 04:59:46;;;;;;;1.77;1.25;;;20.70;58.10;;;;;;5054196;28;20178;-68
2022/05/15 05:02:12;;;;;;;1.20;1.10;;;20.70;58.10;;;;;;5073820;28;20185;-68
2022/05/15 05:04:37;;;;;;;1.60;1.10;;;20.70;58.10;;;;;;5074892;28;20206;-68
2022/05/15 05:07:03;;;;;;;1.65;1.40;;;20.70;58.10;;;;;;5075228;28;20192;-69
2022/05/15 05:09:29;;;;;;;1.20;1.10;;;20.70;58.10;;;;;;5058359;28;20530;-69
2022/05/15 05:11:55;;;;;;;1.88;1.20;;;20.70;58.10;;;;;;5058248;28;20276;-69
2022/05/15 05:14:22;;;;;;;1.58;1.20;;;20.70;58.10;;;;;;5058080;28;20205;-69
2022/05/15 05:16:47;;;;;;;1.45;1.35;;;20.70;58.10;;;;;;5076044;28;20193;-69
2022/05/15 05:19:13;;;;;;;1.67;1.20;;;20.70;58.10;;;;;;5075913;28;20186;-69
2022/05/15 05:21:39;;;;;;;1.65;1.05;;;20.70;58.10;;;;;;5057689;28;20212;-69
2022/05/15 05:24:05;;;;;;;1.95;1.48;;;20.70;58.10;;;;;;5057877;28;20220;-69
2022/05/15 05:26:31;;;;;;;1.52;1.20;;;20.70;58.10;;;;;;5058272;28;20231;-69
2022/05/15 05:28:57;;;;;;;1.98;1.77;;;20.70;58.10;;;;;;5058160;28;20649;-69
2022/05/15 05:31:22;;;;;;;1.40;1.30;;;20.70;58.10;;;;;;5057649;28;20178;-69
2022/05/15 05:33:49;;;;;;;1.90;1.42;;;20.70;58.10;;;;;;5057981;28;20278;-69
2022/05/15 05:36:15;;;;;;;1.73;1.55;;;20.70;58.10;;;;;;5074583;28;20737;-69
2022/05/15 05:38:41;;;;;;;1.85;1.30;;;20.70;58.10;;;;;;5057970;28;20190;-69
2022/05/15 05:41:06;;;;;;;1.45;1.35;;;20.70;58.10;;;;;;5074405;28;20182;-69
2022/05/15 05:43:32;;;;;;;1.42;1.33;;;20.70;58.10;;;;;;5074248;28;20278;-69
2022/05/15 05:45:59;;;;;;;1.77;1.50;;;20.70;58.10;;;;;;5074207;28;20193;-69
2022/05/15 05:48:25;;;;;;;1.67;1.20;;;20.70;58.10;;;;;;5057564;28;20173;-69
2022/05/15 05:50:51;;;;;;;1.60;1.50;;;20.70;58.10;;;;;;5057477;28;20593;-69
2022/05/15 05:53:17;;;;;;;1.45;1.20;;;20.70;58.20;;;;;;5057430;28;20575;-69
2022/05/15 05:55:43;;;;;;;1.75;1.45;;;20.70;58.10;;;;;;5074236;28;20220;-68
2022/05/15 05:58:09;;;;;;;1.30;1.20;;;20.70;58.10;;;;;;5074018;28;20253;-69
2022/05/15 06:00:40;;;;;;;1.40;1.30;;;20.70;58.60;;;;;;5065152;28;20177;-69
2022/05/15 06:05:52;;;;;;;1.65;1.50;;;20.70;58.10;;;;;;5095336;28;20269;-69
2022/05/15 06:08:19;;;;;;;1.30;1.20;;;20.70;58.10;;;;;;5094533;28;20181;-69
2022/05/15 06:10:46;;;;;;;1.92;1.60;;;20.70;58.10;;;;;;5077155;28;20551;-68
2022/05/15 06:13:12;;;;;;;2.53;1.65;;;20.70;57.90;;;;;;5076125;28;20228;-69
2022/05/15 06:15:38;;;;;;;2.05;1.52;;;20.80;57.90;;;;;;5106218;28;20255;-69
2022/05/15 06:18:06;;;;;;;2.22;1.67;;;20.80;57.80;;;;;;5073700;28;20181;-69
2022/05/15 06:20:32;;;;;;;1.50;1.40;;;20.80;57.80;;;;;;5073510;28;20193;-69
2022/05/15 06:22:58;;;;;;;1.75;1.23;;;20.80;57.90;;;;;;5073538;28;20214;-69
2022/05/15 06:25:24;;;;;;;2.15;1.50;;;20.80;57.90;;;;;;5056867;28;20252;-69
2022/05/15 06:27:50;;;;;;;1.50;1.40;;;20.80;57.70;;;;;;5087436;28;20186;-69
2022/05/15 06:30:17;;;;;;;2.28;1.67;;;20.80;57.80;;;;;;5050729;28;20247;-68
2022/05/15 06:32:43;;;;;;;1.65;1.48;;;20.80;57.80;;;;;;5057088;28;20216;-69
2022/05/15 06:35:13;;;;;;;1.80;1.70;;;20.80;57.70;;;;;;5073292;28;20297;-69
2022/05/15 06:37:39;;;;;;;1.50;1.40;;;20.80;57.70;;;;;;5056848;28;20182;-69
2022/05/15 06:40:08;;;;;;;2.28;1.50;;;20.80;57.60;;;;;;5073092;28;20185;-68
2022/05/15 06:42:34;;;;;;;1.70;1.60;;;20.80;58.20;;;;;;5042601;28;20207;-69
2022/05/15 06:45:05;;;;;;;2.70;1.73;;;20.80;57.60;;;;;;5037277;28;20214;-69
2022/05/15 06:47:31;;;;;;;1.63;1.52;;;20.80;57.60;;;;;;5054252;28;20257;-69
2022/05/15 06:49:58;;;;;;;2.38;1.42;;;20.80;57.60;;;;;;5060029;28;20207;-68
2022/05/15 06:52:25;;;;;;;1.50;1.40;;;20.90;57.70;;;;;;5074347;28;20549;-69
2022/05/15 06:54:51;;;;;;;3.00;1.50;;;20.90;57.60;;;;;;5072909;28;20210;-69
2022/05/15 06:57:28;;;;;;;2.17;1.70;;;20.80;57.60;;;;;;5056213;28;20188;-69
2022/05/15 07:00:03;;;;;;;1.58;1.40;;;20.90;57.60;;;;;;5055955;28;20186;-69
2022/05/15 07:02:30;;;;;;;1.48;1.38;;;20.90;57.60;;;;;;5072933;28;20171;-69
2022/05/15 07:04:56;;;;;;;2.28;1.50;;;20.90;57.50;;;;;;5106437;28;20700;-69
2022/05/15 07:07:22;;;;;;;1.52;1.40;;;20.90;57.40;;;;;;5056036;28;20182;-67
2022/05/15 07:09:48;;;;;;;2.45;1.67;;;20.90;57.40;;;;;;5073081;28;20269;-69
2022/05/15 07:12:14;;;;;;;3.38;1.60;;;20.90;57.40;;;;;;5041962;28;20669;-69
2022/05/15 07:14:41;;;;;;;1.88;1.52;;;20.90;57.40;;;;;;5044575;28;20209;-69
2022/05/15 07:17:07;;;;;;;1.95;1.42;;;20.90;57.40;;;;;;5069396;28;20174;-69
2022/05/15 07:19:34;;;;;;;1.48;1.38;;;20.90;57.40;;;;;;5054826;28;20186;-69
2022/05/15 07:21:59;;;;;;;1.88;1.55;;;20.90;57.20;;;;;;5063530;28;20183;-69
2022/05/15 07:24:25;;;;;;;1.60;1.50;;;20.90;57.20;;;;;;5063148;28;20221;-70
2022/05/15 07:26:52;;;;;;;2.53;1.58;;;20.90;57.10;;;;;;5067154;28;20250;-69
2022/05/15 07:29:20;;;;;;;1.67;1.55;;;20.90;57.10;;;;;;5055614;28;20185;-69
2022/05/15 07:31:47;;;;;;;1.77;1.48;;;21.00;57.10;;;;;;5072008;28;20201;-69
2022/05/15 07:34:13;;;;;;;1.52;1.20;;;21.00;57.20;;;;;;5072345;28;20233;-69
2022/05/15 07:36:38;;;;;;;1.42;1.20;;;21.00;57.20;;;;;;5072097;28;20181;-69
2022/05/15 07:39:05;;;;;;;2.15;1.30;;;21.00;57.00;;;;;;5052105;28;20547;-69
2022/05/15 07:41:32;;;;;;;1.50;1.40;;;21.00;57.10;;;;;;5052258;28;20225;-69
2022/05/15 07:43:57;;;;;;;2.72;1.48;;;21.00;56.80;;;;;;5068580;28;20225;-69
2022/05/15 07:46:23;;;;;;;1.48;1.30;;;21.10;56.90;;;;;;5068761;28;20186;-69
2022/05/15 07:48:49;;;;;;;1.67;1.40;;;21.10;57.20;;;;;;5051940;28;20206;-70
2022/05/15 07:51:15;;;;;;;1.90;1.40;;;21.10;57.00;;;;;;5068500;28;20252;-70
2022/05/15 07:53:42;;;;;;;2.47;1.40;;;21.10;56.90;;;;;;5068405;28;20186;-70
2022/05/15 07:56:09;;;;;;;1.88;1.40;;;21.10;56.90;;;;;;5068758;28;20186;-69
2022/05/15 07:58:38;;;;;;;2.25;1.60;;;21.20;57.00;;;;;;5053304;28;20576;-69
2022/05/15 08:01:05;;;;;;;1.80;1.40;;;21.20;57.00;;;;;;5068194;28;20565;-69
2022/05/15 08:03:43;;;;;;;1.70;1.40;;;21.20;57.00;;;;;;5068458;28;20211;-69
2022/05/15 08:08:59;;;;;;;1.85;1.42;;;21.20;57.00;;;;;;5071797;28;20243;-69
2022/05/15 08:11:28;;;;;;;2.63;1.40;;;21.20;57.70;;;;;;5071599;28;20181;-69
2022/05/15 08:14:02;;;;;;;1.55;1.45;;;21.20;57.20;;;;;;5071711;28;20217;-69
2022/05/15 08:16:30;;;;;;;2.13;1.60;;;21.20;57.30;;;;;;5071498;28;20166;-69
2022/05/15 08:24:26;;;;;;;2.13;1.50;;;21.20;57.20;;;;;;5071050;28;20240;-69
2022/05/15 08:26:52;;;;;;;3.42;1.70;;;21.20;57.20;;;;;;5071430;28;20205;-69
2022/05/15 08:29:19;;;;;;;1.50;1.38;;;21.20;57.20;;;;;;5071417;28;20277;-69
2022/05/15 08:31:46;;;;;;;2.20;1.50;;;21.20;57.20;;;;;;5054408;28;20751;-69
2022/05/15 08:34:12;;;;;;;1.40;1.30;;;21.20;57.20;;;;;;5054475;28;20209;-69
2022/05/15 08:36:41;;;;;;;1.90;1.40;;;21.30;57.30;;;;;;5054108;28;20186;-69
2022/05/15 08:39:09;;;;;;;1.73;1.45;;;21.20;57.30;;;;;;5054484;28;20176;-68
2022/05/15 08:42:16;;;;;;;1.50;1.30;;;21.20;57.30;;;;;;5054280;28;20177;-69
2022/05/15 08:44:46;;;;;;;2.60;1.70;;;21.30;57.30;;;;;;5054625;28;20209;-68
2022/05/15 08:47:47;;;;;;;2.20;1.20;;;21.30;57.30;;;;;;5071166;28;20205;-69
2022/05/15 08:50:19;;;;;;;1.52;1.20;;;21.30;57.30;;;;;;5054209;28;20200;-66
2022/05/15 08:53:05;;;;;;;1.23;1.15;;;21.30;57.30;;;;;;5054441;28;20192;-69
2022/05/15 08:55:49;;;;;;;2.17;1.60;;;21.30;57.30;;;;;;5071107;28;20347;-69
2022/05/15 08:58:30;;;;;;;1.70;1.60;;;21.30;57.30;;;;;;5054756;28;20189;-69
2022/05/15 09:00:57;;;;;;;2.00;1.48;;;21.30;57.30;;;;;;5070956;28;20189;-69
2022/05/15 09:03:30;;;;;;;1.70;1.45;;;21.30;57.30;;;;;;5054404;28;20205;-69
2022/05/15 09:06:48;;;;;;;8.85;1.80;;;21.30;57.30;;;;;;5054488;28;20268;-70
2022/05/15 09:09:34;;;;;;;1.60;1.50;;;21.30;57.30;;;;;;4993840;28;20172;-69
2022/05/15 09:12:20;;;;;;;1.60;1.50;;;21.30;57.30;;;;;;5053966;28;20220;-69
2022/05/15 09:15:16;;;;;;;1.77;1.48;;;21.30;57.30;;;;;;5054289;28;20213;-68
2022/05/15 09:18:03;;;;;;;1.85;1.40;;;21.30;57.40;;;;;;5071050;28;20655;-67
2022/05/15 09:20:52;;;;;;;1.42;1.30;;;21.30;57.40;;;;;;5053878;28;20197;-70
2022/05/15 09:23:36;;;;;;;1.52;1.42;;;21.30;57.40;;;;;;5054162;28;20221;-70
2022/05/15 09:26:16;;;;;;;3.03;1.67;;;21.30;57.50;;;;;;5053929;28;20226;-69
2022/05/15 09:28:51;;;;;;;1.45;1.30;;;21.30;57.30;;;;;;5054387;28;20174;-70
2022/05/15 09:31:38;;;;;;;3.53;1.40;;;21.30;57.40;;;;;;5070585;28;20174;-69
2022/05/15 09:34:07;;;;;;;2.10;1.17;;;21.30;57.40;;;;;;5078920;22;20243;-71
2022/05/15 09:36:33;;;;;;;1.60;1.50;;;21.30;57.50;;;;;;5109511;28;20177;-72
2022/05/15 09:39:22;;;;;;;2.45;1.70;;;21.30;57.50;;;;;;5094643;28;20557;-72
2022/05/15 09:45:07;;;;;;;2.00;1.80;;;21.30;57.60;;;;;;5092865;28;20209;-72
2022/05/15 09:47:39;;;;;;;1.60;1.50;;;21.30;57.40;;;;;;5076938;28;20196;-72
2022/05/15 09:50:45;;;;;;;1.60;1.50;;;21.30;57.40;;;;;;5097132;28;20184;-72
2022/05/15 09:53:21;;;;;;;2.10;1.75;;;21.30;57.50;;;;;;5095052;28;20172;-72
2022/05/15 09:56:05;;;;;;;2.20;1.67;;;21.30;57.60;;;;;;5075108;28;20201;-72
2022/05/15 09:59:05;;;;;;;2.20;1.42;;;21.30;57.60;;;;;;5076656;28;20174;-72
2022/05/15 10:01:39;;;;;;;1.80;1.70;;;21.30;57.50;;;;;;5075575;28;20203;-72
2022/05/15 10:04:32;;;;;;;1.80;1.55;;;21.30;57.50;;;;;;5076565;28;20228;-72
2022/05/15 10:07:03;;;;;;;2.67;1.55;;;21.30;57.60;;;;;;5059616;28;20238;-73
2022/05/15 10:09:40;;;;;;;1.92;1.45;;;21.30;57.70;;;;;;5092782;28;20181;-72
2022/05/15 10:12:24;;;;;;;3.30;1.67;;;21.30;57.70;;;;;;5091377;28;20169;-72
2022/05/15 10:14:54;;;;;;;2.75;1.90;;;21.30;57.70;;;;;;5074309;28;20209;-72
2022/05/15 10:17:23;;;;;;;1.70;1.45;;;21.30;57.70;;;;;;5074022;28;20181;-72
2022/05/15 10:20:15;;;;;;;2.10;1.50;;;21.30;57.70;;;;;;5074700;28;20257;-72
2022/05/15 10:22:52;;;;;;;1.50;1.40;;;21.30;57.60;;;;;;5073957;28;20221;-72
2022/05/15 10:25:52;;;;;;;2.22;1.50;;;21.30;57.70;;;;;;5075418;28;20213;-72
2022/05/15 10:28:40;;;;;;;1.73;1.45;;;21.30;57.70;;;;;;5074020;28;20212;-72
2022/05/15 10:31:49;;;;;;;3.17;1.60;;;21.30;57.70;;;;;;5073683;28;20633;-72
2022/05/15 10:34:23;;;;;;;2.50;1.52;;;21.30;57.70;;;;;;5075025;28;20229;-73
2022/05/15 10:37:19;;;;;;;1.83;1.60;;;21.30;57.80;;;;;;5073794;28;20196;-73
2022/05/15 10:40:10;;;;;;;1.70;1.60;;;21.30;57.80;;;;;;5056756;28;20189;-72
2022/05/15 10:42:57;;;;;;;2.38;1.50;;;21.30;57.80;;;;;;5057773;28;20193;-72
2022/05/15 10:45:52;;;;;;;1.83;1.63;;;21.30;57.90;;;;;;5076405;28;20223;-72
2022/05/15 10:48:41;;;;;;;1.50;1.40;;;21.30;57.90;;;;;;5079116;28;20181;-72
2022/05/15 10:51:23;;;;;;;1.33;1.23;;;21.30;57.90;;;;;;5059345;28;20178;-72
2022/05/15 10:57:30;;;;;;;1.75;1.65;;;21.40;58.10;;;;;;5074916;28;20201;-72
2022/05/15 11:00:19;;;;;;;3.03;1.70;;;21.30;58.00;;;;;;5058702;28;20276;-72
2022/05/15 11:03:31;;;;;;;2.45;1.70;;;21.40;58.10;;;;;;5074440;28;20201;-72
2022/05/15 11:06:33;;;;;;;2.17;1.58;;;21.40;58.10;;;;;;5075066;28;20225;-72
2022/05/15 11:09:47;;;;;;;2.28;1.88;;;21.40;58.10;;;;;;5073991;28;20641;-72
2022/05/15 11:12:31;;;;;;;1.60;1.50;;;21.40;58.00;;;;;;5035392;28;20201;-72
2022/05/15 11:15:20;;;;;;;2.38;1.63;;;21.40;58.00;;;;;;5073068;28;20292;-72
2022/05/15 11:18:14;;;;;;;1.60;1.50;;;21.30;57.90;;;;;;5056024;28;20211;-72
2022/05/15 11:20:50;;;;;;;1.70;1.60;;;21.40;58.10;;;;;;5055930;28;20186;-72
2022/05/15 11:23:25;;;;;;;2.55;1.70;;;21.40;58.00;;;;;;5054290;28;20208;-72
2022/05/15 11:26:20;;;;;;;2.30;1.50;;;21.40;58.00;;;;;;5053597;28;20240;-72
2022/05/15 11:28:55;;;;;;;1.70;1.60;;;21.40;57.90;;;;;;5070519;28;20170;-72
2022/05/15 11:31:32;;;;;;;3.03;1.42;;;21.30;57.80;;;;;;5053415;28;20182;-72
2022/05/15 11:34:06;;;;;;;1.95;1.60;;;21.40;57.90;;;;;;5070188;28;20253;-73
2022/05/15 11:36:46;;;;;;;3.95;1.83;;;21.40;58.00;;;;;;5070338;28;20196;-72
2022/05/15 11:39:12;;;;;;;1.92;1.70;;;21.40;57.90;;;;;;5070131;28;20630;-73
2022/05/15 11:41:42;;;;;;;2.25;1.70;;;21.40;57.90;;;;;;5069320;28;20292;-72
2022/05/15 11:44:23;;;;;;;1.52;1.35;;;21.40;57.80;;;;;;5050396;28;20236;-72
2022/05/15 11:46:48;;;;;;;2.58;1.38;;;21.40;57.90;;;;;;5070139;28;20177;-72
2022/05/15 11:49:26;;;;;;;3.00;1.70;;;21.40;57.90;;;;;;5070047;28;20186;-72
2022/05/15 11:52:04;;;;;;;2.60;1.60;;;21.40;57.90;;;;;;5053029;28;20182;-72
2022/05/15 11:54:37;;;;;;;1.30;1.20;;;21.40;57.80;;;;;;5069499;28;20225;-72
2022/05/15 11:57:09;;;;;;;2.20;1.63;;;21.40;57.80;;;;;;5069673;28;20219;-72
2022/05/15 11:59:58;;;;;;;1.60;1.50;;;21.40;57.80;;;;;;5069809;28;20197;-72
2022/05/15 12:02:30;;;;;;;2.28;1.70;;;21.40;57.80;;;;;;5052934;28;20185;-72
2022/05/15 12:05:09;;;;;;;1.77;1.50;;;21.40;57.90;;;;;;5052708;28;20717;-72
2022/05/15 12:07:53;;;;;;;1.40;1.30;;;21.40;57.90;;;;;;5069633;28;20169;-72
2022/05/15 12:10:42;;;;;;;1.55;1.38;;;21.40;57.80;;;;;;5052238;28;20242;-72
2022/05/15 12:13:32;;;;;;;1.50;1.40;;;21.40;57.80;;;;;;5015983;28;20201;-72
2022/05/15 12:16:18;;;;;;;1.88;1.48;;;21.40;57.80;;;;;;5070372;28;20212;-72
2022/05/15 12:18:51;;;;;;;2.30;1.35;;;21.40;57.70;;;;;;5052237;28;20206;-72
2022/05/15 12:21:23;;;;;;;2.33;1.45;;;21.40;57.80;;;;;;5052230;28;20188;-72
2022/05/15 12:27:00;;;;;;;1.52;1.40;;;21.40;57.80;;;;;;5090761;28;20572;-72
2022/05/15 12:30:05;;;;;;;2.35;1.58;;;21.40;57.90;;;;;;5072726;28;20185;-72
2022/05/15 12:32:54;;;;;;;1.67;1.58;;;21.40;57.90;;;;;;5091627;28;20185;-72
2022/05/15 12:35:38;;;;;;;2.58;1.38;;;21.40;57.80;;;;;;5092556;28;20201;-72
2022/05/15 12:38:30;;;;;;;1.90;1.75;;;21.40;57.80;;;;;;5091894;28;20173;-72
2022/05/15 12:41:08;;;;;;;1.52;1.42;;;21.40;57.70;;;;;;5071523;28;20192;-72
2022/05/15 12:43:44;;;;;;;1.88;1.60;;;21.40;57.90;;;;;;5074485;28;20245;-72
2022/05/15 12:46:33;;;;;;;1.40;1.30;;;21.40;57.80;;;;;;5091309;28;20208;-72
2022/05/15 12:49:00;;;;;;;2.25;1.80;;;21.40;57.80;;;;;;5074371;28;20740;-72
2022/05/15 12:51:38;;;;;;;2.03;1.42;;;21.40;57.90;;;;;;5092353;28;20180;-71
2022/05/15 12:54:27;;;;;;;1.73;1.50;;;21.40;57.80;;;;;;5091284;28;20547;-72
2022/05/15 12:57:04;;;;;;;1.60;1.50;;;21.40;57.80;;;;;;5074402;28;20184;-72
2022/05/15 12:59:40;;;;;;;2.55;1.80;;;21.40;58.00;;;;;;5091250;28;20188;-72
2022/05/15 13:02:34;;;;;;;1.75;1.50;;;21.40;58.00;;;;;;5074501;28;20222;-72
2022/05/15 13:05:27;;;;;;;1.60;1.50;;;21.40;57.90;;;;;;5074807;28;20315;-72
2022/05/15 13:08:04;;;;;;;2.60;1.60;;;21.40;58.00;;;;;;5067222;28;20258;-72
2022/05/15 13:10:32;;;;;;;1.67;1.58;;;21.40;57.90;;;;;;5091276;28;20569;-72
2022/05/15 13:13:04;;;;;;;1.75;1.60;;;21.40;57.90;;;;;;5091202;28;20242;-72
2022/05/15 13:15:33;;;;;;;1.67;1.40;;;21.40;57.90;;;;;;5090950;28;20714;-72
2022/05/15 13:18:11;;;;;;;2.05;1.85;;;21.40;57.80;;;;;;5092213;28;20195;-72
2022/05/15 13:20:41;;;;;;;1.70;1.60;;;21.40;58.40;;;;;;5091372;28;20193;-72
2022/05/15 13:23:11;;;;;;;1.70;1.50;;;21.40;57.90;;;;;;5093926;28;20214;-72
2022/05/15 13:25:46;;;;;;;1.70;1.60;;;21.40;57.90;;;;;;5078329;28;20200;-72
2022/05/15 13:28:13;;;;;;;1.67;1.58;;;21.40;57.90;;;;;;5078363;28;20631;-72
2022/05/15 13:30:41;;;;;;;1.70;1.33;;;21.50;58.10;;;;;;5078198;28;20551;-72
2022/05/15 13:33:22;;;;;;;1.63;1.52;;;21.50;58.00;;;;;;5095175;28;20234;-72
2022/05/15 13:35:55;;;;;;;1.60;1.50;;;21.40;57.90;;;;;;5077685;28;20273;-73
2022/05/15 13:38:25;;;;;;;1.40;1.20;;;21.50;58.00;;;;;;5078108;28;20177;-72
2022/05/15 13:43:58;;;;;;;2.78;1.67;;;21.40;57.80;;;;;;5094514;28;20208;-72